createdAt,value
2023-02-22T00:00:28.017Z,100571.70703125
2023-02-22T00:01:27.628Z,100570.5625
2023-02-22T00:02:27.660Z,100570.65625
2023-02-22T00:03:27.674Z,100571.81640625
2023-02-22T00:04:27.626Z,100571.00390625
2023-02-22T00:05:27.624Z,100575.203125
2023-02-22T00:06:27.608Z,100569.73828125
2023-02-22T00:07:27.919Z,100572.6171875
2023-02-22T00:08:27.675Z,100568.55859375
2023-02-22T00:09:27.587Z,100571.0078125
2023-02-22T00:10:29.999Z,100573.56640625
2023-02-22T00:11:27.616Z,100575.4453125
2023-02-22T00:12:27.710Z,100573.02734375
2023-02-22T00:13:27.713Z,100571.6015625
2023-02-22T00:14:27.697Z,100569.74609375
2023-02-22T00:15:27.932Z,100567.09375
2023-02-22T00:16:27.703Z,100565.1796875
2023-02-22T00:17:27.925Z,100565.0234375
2023-02-22T00:18:27.576Z,100559.67578125
2023-02-22T00:19:27.663Z,100559.99609375
2023-02-22T00:20:27.614Z,100554.890625
2023-02-22T00:21:30.034Z,100553.76953125
2023-02-22T00:22:27.926Z,100552.30078125
2023-02-22T00:23:27.579Z,100553.5546875
2023-02-22T00:24:27.593Z,100553.8828125
2023-02-22T00:25:27.586Z,100551.59765625
2023-02-22T00:26:27.704Z,100553.09375
2023-02-22T00:27:27.601Z,100553.73046875
2023-02-22T00:28:27.719Z,100551.95703125
2023-02-22T00:29:27.683Z,100556.63671875
2023-02-22T00:30:27.987Z,100552.68359375
2023-02-22T00:31:27.615Z,100555.8984375
2023-02-22T00:32:32.530Z,100555.28125
2023-02-22T00:33:27.578Z,100557.890625
2023-02-22T00:34:27.571Z,100561.1796875
2023-02-22T00:35:27.595Z,100561.79296875
2023-02-22T00:36:27.572Z,100560.46875
2023-02-22T00:37:27.924Z,100559.08984375
2023-02-22T00:38:27.703Z,100559.30078125
2023-02-22T00:39:27.708Z,100561.24609375
2023-02-22T00:40:27.705Z,100559.421875
2023-02-22T00:41:27.656Z,100555.71875
2023-02-22T00:42:27.688Z,100555.90625
2023-02-22T00:43:29.961Z,100554.91796875
2023-02-22T00:44:27.638Z,100554.375
2023-02-22T00:45:27.920Z,100555.609375
2023-02-22T00:46:27.651Z,100551.58984375
2023-02-22T00:47:27.921Z,100554.51953125
2023-02-22T00:48:27.669Z,100551.87890625
2023-02-22T00:49:27.643Z,100549.32421875
2023-02-22T00:50:27.690Z,100550.47265625
2023-02-22T00:51:27.636Z,100548.59765625
2023-02-22T00:52:27.930Z,100550.3359375
2023-02-22T00:53:27.644Z,100545.91796875
2023-02-22T00:54:30.064Z,100547.9609375
2023-02-22T00:55:27.636Z,100545.53515625
2023-02-22T00:56:27.575Z,100543.3671875
2023-02-22T00:57:27.915Z,100539.1640625
2023-02-22T00:58:27.570Z,100542.54296875
2023-02-22T00:59:27.671Z,100541.80078125
2023-02-22T01:00:27.917Z,100535.62890625
2023-02-22T01:01:27.618Z,100535.72265625
2023-02-22T01:02:27.982Z,100536.3125
2023-02-22T01:03:27.533Z,100535
2023-02-22T01:04:27.714Z,100532.44921875
2023-02-22T01:05:29.925Z,100530.8515625
2023-02-22T01:06:27.587Z,100535.1015625
2023-02-22T01:07:27.920Z,100531.80859375
2023-02-22T01:08:27.694Z,100533.3046875
2023-02-22T01:09:27.682Z,100533.375
2023-02-22T01:10:27.641Z,100533.62890625
2023-02-22T01:11:27.540Z,100531.54296875
2023-02-22T01:12:27.920Z,100528.8203125
2023-02-22T01:13:27.660Z,100527.9375
2023-02-22T01:14:27.665Z,100526.71484375
2023-02-22T01:15:27.938Z,100525.37109375
2023-02-22T01:16:30.102Z,100524.9453125
2023-02-22T01:17:27.923Z,100526.1875
2023-02-22T01:18:27.597Z,100527.37109375
2023-02-22T01:19:27.610Z,100521.95703125
2023-02-22T01:20:27.602Z,100517.50390625
2023-02-22T01:21:27.673Z,100521.53125
2023-02-22T01:22:27.928Z,100512.3125
2023-02-22T01:23:27.635Z,100515.09375
2023-02-22T01:24:27.644Z,100514.3984375
2023-02-22T01:25:27.695Z,100512.66015625
2023-02-22T01:26:27.620Z,100515.265625
2023-02-22T01:27:32.353Z,100514.47265625
2023-02-22T01:28:27.670Z,100511.95703125
2023-02-22T01:29:27.690Z,100512.91796875
2023-02-22T01:30:27.990Z,100514.22265625
2023-02-22T01:31:27.809Z,100514.9609375
2023-02-22T01:32:27.925Z,100514.8515625
2023-02-22T01:33:27.670Z,100513.2578125
2023-02-22T01:34:27.656Z,100514.09375
2023-02-22T01:35:27.608Z,100509.1015625
2023-02-22T01:36:27.651Z,100514.5703125
2023-02-22T01:37:27.914Z,100514.63671875
2023-02-22T01:38:30.011Z,100511.34765625
2023-02-22T01:39:27.676Z,100513.50390625
2023-02-22T01:40:27.596Z,100514.58203125
2023-02-22T01:41:27.624Z,100511.9921875
2023-02-22T01:42:27.921Z,100509.859375
2023-02-22T01:43:27.682Z,100508.7421875
2023-02-22T01:44:27.700Z,100509.3828125
2023-02-22T01:45:27.927Z,100504.578125
2023-02-22T01:46:27.835Z,100507.21875
2023-02-22T01:47:27.922Z,100506.77734375
2023-02-22T01:48:27.588Z,100506.25390625
2023-02-22T01:49:29.965Z,100505.31640625
2023-02-22T01:50:27.650Z,100499.390625
2023-02-22T01:51:27.549Z,100502.9609375
2023-02-22T01:52:27.923Z,100500.28515625
2023-02-22T01:53:27.661Z,100499.2265625
2023-02-22T01:54:27.568Z,100497
2023-02-22T01:55:27.665Z,100499.46875
2023-02-22T01:56:27.680Z,100499.2578125
2023-02-22T01:57:27.924Z,100496.5390625
2023-02-22T01:58:27.613Z,100496.515625
2023-02-22T01:59:27.582Z,100495.609375
2023-02-22T02:00:32.409Z,100496.92578125
2023-02-22T02:01:27.618Z,100495.30859375
2023-02-22T02:02:27.920Z,100492.91015625
2023-02-22T02:03:27.577Z,100494.5546875
2023-02-22T02:04:27.665Z,100494.015625
2023-02-22T02:05:27.714Z,100491.1171875
2023-02-22T02:06:27.587Z,100491.66796875
2023-02-22T02:07:27.916Z,100490.3125
2023-02-22T02:08:27.694Z,100488.625
2023-02-22T02:09:27.670Z,100488.19921875
2023-02-22T02:10:27.680Z,100487.57421875
2023-02-22T02:11:29.929Z,100487.94921875
2023-02-22T02:12:27.926Z,100486.69921875
2023-02-22T02:13:27.670Z,100487.16796875
2023-02-22T02:14:27.564Z,100484.88671875
2023-02-22T02:15:27.916Z,100485.06640625
2023-02-22T02:16:27.703Z,100483.58984375
2023-02-22T02:17:27.918Z,100483.57421875
2023-02-22T02:18:27.656Z,100480.91015625
2023-02-22T02:19:27.641Z,100480.984375
2023-02-22T02:20:27.705Z,100481.484375
2023-02-22T02:21:27.672Z,100480.83203125
2023-02-22T02:22:32.335Z,100476.7890625
2023-02-22T02:23:27.661Z,100481.58203125
2023-02-22T02:24:27.564Z,100477.9921875
2023-02-22T02:25:27.584Z,100479.9375
2023-02-22T02:26:27.631Z,100477.61328125
2023-02-22T02:27:27.919Z,100476.80859375
2023-02-22T02:28:27.684Z,100478.75390625
2023-02-22T02:29:27.592Z,100476.53125
2023-02-22T02:30:27.948Z,100475.75390625
2023-02-22T02:31:27.655Z,100467.1796875
2023-02-22T02:32:28.058Z,100471.921875
2023-02-22T02:33:29.924Z,100475.71875
2023-02-22T02:34:27.668Z,100472.8125
2023-02-22T02:35:27.691Z,100470.10546875
2023-02-22T02:36:27.646Z,100467.76171875
2023-02-22T02:37:27.934Z,100472.55078125
2023-02-22T02:38:27.618Z,100466.796875
2023-02-22T02:39:27.655Z,100464.6875
2023-02-22T02:40:27.667Z,100468.140625
2023-02-22T02:41:27.601Z,100465.65625
2023-02-22T02:42:27.928Z,100466.90625
2023-02-22T02:43:27.695Z,100458.9140625
2023-02-22T02:44:29.970Z,100461.859375
2023-02-22T02:45:27.932Z,100459.58984375
2023-02-22T02:46:27.584Z,100454.4140625
2023-02-22T02:47:27.943Z,100458.83984375
2023-02-22T02:48:27.654Z,100456.55859375
2023-02-22T02:49:27.580Z,100459.0859375
2023-02-22T02:50:27.583Z,100457.09765625
2023-02-22T02:51:27.680Z,100457.1953125
2023-02-22T02:52:27.921Z,100457.25390625
2023-02-22T02:53:27.605Z,100452.08984375
2023-02-22T02:54:27.714Z,100451.953125
2023-02-22T02:55:29.957Z,100451.94921875
2023-02-22T02:56:27.692Z,100449.37890625
2023-02-22T02:57:27.914Z,100449
2023-02-22T02:58:27.687Z,100455.5703125
2023-02-22T02:59:27.584Z,100453.76171875
2023-02-22T03:00:27.656Z,100454.15625
2023-02-22T03:01:27.650Z,100452.375
2023-02-22T03:02:27.934Z,100452.1640625
2023-02-22T03:03:27.635Z,100451.5
2023-02-22T03:04:27.550Z,100449.01953125
2023-02-22T03:05:27.672Z,100450.953125
2023-02-22T03:06:29.976Z,100452.3203125
2023-02-22T03:07:27.964Z,100450.796875
2023-02-22T03:08:27.670Z,100449.44140625
2023-02-22T03:09:27.644Z,100445.3984375
2023-02-22T03:10:27.609Z,100446.08984375
2023-02-22T03:11:27.617Z,100442.83203125
2023-02-22T03:12:27.922Z,100442.015625
2023-02-22T03:13:27.691Z,100442.84765625
2023-02-22T03:14:27.638Z,100440.2578125
2023-02-22T03:15:27.920Z,100441.58984375
2023-02-22T03:16:27.750Z,100442.58203125
2023-02-22T03:17:32.396Z,100439.1796875
2023-02-22T03:18:27.603Z,100435.9296875
2023-02-22T03:19:27.685Z,100437.21484375
2023-02-22T03:20:27.690Z,100435.52734375
2023-02-22T03:21:27.625Z,100435.01953125
2023-02-22T03:22:27.930Z,100432.66015625
2023-02-22T03:23:27.699Z,100431.02734375
2023-02-22T03:24:27.656Z,100433.71875
2023-02-22T03:25:27.575Z,100429.83203125
2023-02-22T03:26:27.656Z,100431.23828125
2023-02-22T03:27:27.933Z,100428.8671875
2023-02-22T03:28:29.992Z,100429.13671875
2023-02-22T03:29:27.682Z,100427.1875
2023-02-22T03:30:28.017Z,100424.48046875
2023-02-22T03:31:27.766Z,100422.87109375
2023-02-22T03:32:27.927Z,100421.82421875
2023-02-22T03:33:27.567Z,100422.48046875
2023-02-22T03:34:27.619Z,100423.3515625
2023-02-22T03:35:27.579Z,100422.3359375
2023-02-22T03:36:27.673Z,100419.1796875
2023-02-22T03:37:27.931Z,100422.8359375
2023-02-22T03:38:27.693Z,100425.8046875
2023-02-22T03:39:29.937Z,100423.63671875
2023-02-22T03:40:27.562Z,100422.8046875
2023-02-22T03:41:27.600Z,100420.55078125
2023-02-22T03:42:27.925Z,100419.76953125
2023-02-22T03:43:27.716Z,100421.22265625
2023-02-22T03:44:27.566Z,100409.29296875
2023-02-22T03:45:27.954Z,100414.08984375
2023-02-22T03:46:27.675Z,100416.2109375
2023-02-22T03:47:27.930Z,100417.23828125
2023-02-22T03:48:27.715Z,100412.5625
2023-02-22T03:49:27.658Z,100410.640625
2023-02-22T03:50:29.998Z,100413.94921875
2023-02-22T03:51:27.649Z,100414.12890625
2023-02-22T03:52:27.945Z,100412.2421875
2023-02-22T03:53:27.716Z,100413.75
2023-02-22T03:54:27.679Z,100415.4765625
2023-02-22T03:55:27.582Z,100409.5859375
2023-02-22T03:56:27.591Z,100410.44140625
2023-02-22T03:57:27.679Z,100408.98828125
2023-02-22T03:58:27.580Z,100411.97265625
2023-02-22T03:59:27.810Z,100410.34375
2023-02-22T04:00:27.912Z,100409.26953125
2023-02-22T04:01:29.942Z,100409.70703125
2023-02-22T04:02:27.645Z,100412.23828125
2023-02-22T04:03:27.601Z,100409.59765625
2023-02-22T04:04:27.728Z,100407.19921875
2023-02-22T04:05:27.675Z,100410.671875
2023-02-22T04:06:27.597Z,100410.296875
2023-02-22T04:07:27.924Z,100410.89453125
2023-02-22T04:08:27.635Z,100413.00390625
2023-02-22T04:09:27.629Z,100411.4375
2023-02-22T04:10:27.639Z,100410.65234375
2023-02-22T04:11:27.615Z,100412.14453125
2023-02-22T04:12:30.011Z,100412.08203125
2023-02-22T04:13:27.656Z,100410.828125
2023-02-22T04:14:29.455Z,100412.625
2023-02-22T04:15:27.917Z,100413.76953125
2023-02-22T04:16:27.676Z,100412.51953125
2023-02-22T04:17:27.922Z,100412.2890625
2023-02-22T04:18:27.655Z,100415.4375
2023-02-22T04:19:27.710Z,100413.82421875
2023-02-22T04:20:27.580Z,100411.49609375
2023-02-22T04:21:27.579Z,100412.08984375
2023-02-22T04:22:27.919Z,100411.98828125
2023-02-22T04:23:30.047Z,100417.16015625
2023-02-22T04:24:29.614Z,100414.078125
2023-02-22T04:25:27.652Z,100411.44921875
2023-02-22T04:26:27.662Z,100411.17578125
2023-02-22T04:27:27.714Z,100410.66796875
2023-02-22T04:28:27.576Z,100407.58203125
2023-02-22T04:29:27.637Z,100409.59765625
2023-02-22T04:30:27.970Z,100410.40234375
2023-02-22T04:31:27.701Z,100407.8046875
2023-02-22T04:32:27.931Z,100405.58203125
2023-02-22T04:33:27.660Z,100406.50390625
2023-02-22T04:34:30.012Z,100405.85546875
2023-02-22T04:35:27.634Z,100406.5
2023-02-22T04:36:27.550Z,100405.1640625
2023-02-22T04:37:27.925Z,100407.828125
2023-02-22T04:38:27.641Z,100404.6640625
2023-02-22T04:39:27.716Z,100403.12109375
2023-02-22T04:40:27.686Z,100404.2578125
2023-02-22T04:41:27.610Z,100402.77734375
2023-02-22T04:42:27.690Z,100405.4453125
2023-02-22T04:43:27.572Z,100404.60546875
2023-02-22T04:44:27.553Z,100401.0078125
2023-02-22T04:45:32.432Z,100400.3984375
2023-02-22T04:46:27.795Z,100399.578125
2023-02-22T04:47:28.011Z,100399.96484375
2023-02-22T04:48:27.701Z,100399.7265625
2023-02-22T04:49:27.614Z,100401.88671875
2023-02-22T04:50:27.678Z,100400.94140625
2023-02-22T04:51:27.595Z,100399.109375
2023-02-22T04:52:27.929Z,100397.83203125
2023-02-22T04:53:27.648Z,100402.1875
2023-02-22T04:54:27.714Z,100398.2421875
2023-02-22T04:55:27.683Z,100400.83203125
2023-02-22T04:56:29.973Z,100398.5078125
2023-02-22T04:57:27.917Z,100399.265625
2023-02-22T04:58:27.665Z,100401.2421875
2023-02-22T04:59:27.611Z,100398.6328125
2023-02-22T05:00:27.920Z,100397.93359375
2023-02-22T05:01:27.623Z,100396.83203125
2023-02-22T05:02:27.984Z,100396.01953125
2023-02-22T05:03:27.700Z,100400.06640625
2023-02-22T05:04:27.619Z,100397.6953125
2023-02-22T05:05:27.673Z,100397.8984375
2023-02-22T05:06:27.590Z,100398.890625
2023-02-22T05:07:32.361Z,100395.1953125
2023-02-22T05:08:27.665Z,100394.31640625
2023-02-22T05:09:27.565Z,100396.5
2023-02-22T05:10:27.639Z,100394.41796875
2023-02-22T05:11:27.568Z,100392.5390625
2023-02-22T05:12:27.916Z,100390.7421875
2023-02-22T05:13:27.635Z,100395.31640625
2023-02-22T05:14:27.576Z,100390.68359375
2023-02-22T05:15:27.951Z,100393.4453125
2023-02-22T05:16:27.706Z,100388.91796875
2023-02-22T05:17:27.922Z,100389.38671875
2023-02-22T05:18:29.939Z,100390.28515625
2023-02-22T05:19:27.543Z,100389.3671875
2023-02-22T05:20:27.582Z,100390.75390625
2023-02-22T05:21:27.582Z,100389.66015625
2023-02-22T05:22:27.916Z,100385.23828125
2023-02-22T05:23:27.686Z,100387.08984375
2023-02-22T05:24:27.692Z,100382.69921875
2023-02-22T05:25:27.632Z,100389.3515625
2023-02-22T05:26:27.659Z,100390.01171875
2023-02-22T05:27:27.928Z,100388.296875
2023-02-22T05:28:27.677Z,100390.76171875
2023-02-22T05:29:30.013Z,100382.546875
2023-02-22T05:30:27.986Z,100384.484375
2023-02-22T05:31:27.835Z,100384.49609375
2023-02-22T05:32:27.942Z,100383.0859375
2023-02-22T05:33:27.579Z,100384.85546875
2023-02-22T05:34:27.563Z,100385.06640625
2023-02-22T05:35:27.646Z,100385.9921875
2023-02-22T05:36:27.636Z,100385.671875
2023-02-22T05:37:27.927Z,100381.5390625
2023-02-22T05:38:27.710Z,100382.5546875
2023-02-22T05:39:27.649Z,100382.6953125
2023-02-22T05:40:29.941Z,100381.30859375
2023-02-22T05:41:27.607Z,100384.4296875
2023-02-22T05:42:27.938Z,100380.0859375
2023-02-22T05:43:27.612Z,100378.94140625
2023-02-22T05:44:27.578Z,100381.2578125
2023-02-22T05:45:27.926Z,100379.8359375
2023-02-22T05:46:27.702Z,100378.83984375
2023-02-22T05:47:27.947Z,100377.98828125
2023-02-22T05:48:27.605Z,100377.6015625
2023-02-22T05:49:27.673Z,100375.59375
2023-02-22T05:50:27.600Z,100374.62890625
2023-02-22T05:51:29.893Z,100376.37890625
2023-02-22T05:52:27.923Z,100372.5703125
2023-02-22T05:53:27.683Z,100371.72265625
2023-02-22T05:54:27.673Z,100372.671875
2023-02-22T05:55:27.628Z,100370.578125
2023-02-22T05:56:27.699Z,100371.171875
2023-02-22T05:57:27.932Z,100374.78515625
2023-02-22T05:58:27.588Z,100373.93359375
2023-02-22T05:59:27.574Z,100374.5625
2023-02-22T06:00:27.926Z,100376.6875
2023-02-22T06:01:27.649Z,100379.7578125
2023-02-22T06:02:29.998Z,100377.8671875
2023-02-22T06:03:27.668Z,100378.140625
2023-02-22T06:04:27.696Z,100380.7734375
2023-02-22T06:05:27.613Z,100379.859375
2023-02-22T06:06:27.600Z,100380.65625
2023-02-22T06:07:27.933Z,100382.71875
2023-02-22T06:08:27.675Z,100384.5
2023-02-22T06:09:27.605Z,100383.07421875
2023-02-22T06:10:27.612Z,100380.86328125
2023-02-22T06:11:27.531Z,100379.5078125
2023-02-22T06:12:27.916Z,100383.87109375
2023-02-22T06:13:30.028Z,100381.23046875
2023-02-22T06:14:27.685Z,100379.71875
2023-02-22T06:15:27.918Z,100380.58203125
2023-02-22T06:16:27.658Z,100380.7265625
2023-02-22T06:17:27.929Z,100382.25390625
2023-02-22T06:18:27.703Z,100376.4453125
2023-02-22T06:19:27.661Z,100380.125
2023-02-22T06:20:27.679Z,100379.484375
2023-02-22T06:21:27.576Z,100377.4453125
2023-02-22T06:22:27.919Z,100378.05859375
2023-02-22T06:23:27.645Z,100376.2421875
2023-02-22T06:24:30.019Z,100379
2023-02-22T06:25:27.689Z,100379.1640625
2023-02-22T06:26:27.704Z,100383.37890625
2023-02-22T06:27:27.688Z,100382.5859375
2023-02-22T06:28:27.632Z,100384.1640625
2023-02-22T06:29:27.675Z,100385.046875
2023-02-22T06:30:28.021Z,100386.78125
2023-02-22T06:31:27.698Z,100388.0546875
2023-02-22T06:32:28.002Z,100387.61328125
2023-02-22T06:33:27.584Z,100391.95703125
2023-02-22T06:34:27.676Z,100390.47265625
2023-02-22T06:35:30.039Z,100392.74609375
2023-02-22T06:36:27.639Z,100393.13671875
2023-02-22T06:37:27.930Z,100391.3125
2023-02-22T06:38:27.732Z,100390.609375
2023-02-22T06:39:27.682Z,100387.68359375
2023-02-22T06:40:27.668Z,100391.83984375
2023-02-22T06:41:27.527Z,100392.12890625
2023-02-22T06:42:27.951Z,100394.23828125
2023-02-22T06:43:27.651Z,100395.08984375
2023-02-22T06:44:27.640Z,100396.30078125
2023-02-22T06:45:27.956Z,100394
2023-02-22T06:46:29.905Z,100395.9375
2023-02-22T06:47:27.915Z,100396.4453125
2023-02-22T06:48:27.688Z,100396.01171875
2023-02-22T06:49:27.585Z,100398.00390625
2023-02-22T06:50:27.552Z,100396.56640625
2023-02-22T06:51:27.635Z,100397.203125
2023-02-22T06:52:27.911Z,100400.75390625
2023-02-22T06:53:27.611Z,100399.05078125
2023-02-22T06:54:27.702Z,100401.52734375
2023-02-22T06:55:27.706Z,100394.6953125
2023-02-22T06:56:27.650Z,100399.19140625
2023-02-22T06:57:32.381Z,100399.6171875
2023-02-22T06:58:27.597Z,100400.82421875
2023-02-22T06:59:27.713Z,100397.609375
2023-02-22T07:00:27.916Z,100396.21875
2023-02-22T07:01:27.613Z,100401.23046875
2023-02-22T07:02:27.917Z,100396.49609375
2023-02-22T07:03:27.622Z,100398.484375
2023-02-22T07:04:27.623Z,100398.8359375
2023-02-22T07:05:27.556Z,100395.8125
2023-02-22T07:06:27.653Z,100395.3984375
2023-02-22T07:07:27.925Z,100394.7890625
2023-02-22T07:08:29.893Z,100392.68359375
2023-02-22T07:09:27.679Z,100395.05078125
2023-02-22T07:10:27.601Z,100392.0625
2023-02-22T07:11:27.573Z,100391.9609375
2023-02-22T07:12:27.922Z,100396.796875
2023-02-22T07:13:27.662Z,100397.08203125
2023-02-22T07:14:27.558Z,100399.27734375
2023-02-22T07:15:28.102Z,100402.0625
2023-02-22T07:16:27.840Z,100405.26171875
2023-02-22T07:17:27.924Z,100405.19140625
2023-02-22T07:18:29.406Z,100407.1171875
2023-02-22T07:19:29.946Z,100411.75390625
2023-02-22T07:20:27.580Z,100405.5078125
2023-02-22T07:21:27.668Z,100409.62109375
2023-02-22T07:22:27.925Z,100405.71875
2023-02-22T07:23:27.691Z,100406.4296875
2023-02-22T07:24:27.678Z,100410.046875
2023-02-22T07:25:27.564Z,100412.33984375
2023-02-22T07:26:27.597Z,100415.65625
2023-02-22T07:27:27.938Z,100410.6796875
2023-02-22T07:28:27.567Z,100411.3515625
2023-02-22T07:29:27.672Z,100416.21484375
2023-02-22T07:30:32.484Z,100413.4921875
2023-02-22T07:31:29.596Z,100412.76953125
2023-02-22T07:32:28.021Z,100414.265625
2023-02-22T07:33:27.675Z,100418.24609375
2023-02-22T07:34:27.538Z,100418.765625
2023-02-22T07:35:27.699Z,100421.7421875
2023-02-22T07:36:27.632Z,100418.90625
2023-02-22T07:37:27.926Z,100420.28125
2023-02-22T07:38:27.680Z,100420.74609375
2023-02-22T07:39:27.637Z,100420.09375
2023-02-22T07:40:27.720Z,100420.90625
2023-02-22T07:41:29.937Z,100424.23828125
2023-02-22T07:42:27.931Z,100424.02734375
2023-02-22T07:43:27.554Z,100424.03125
2023-02-22T07:44:27.614Z,100422.375
2023-02-22T07:45:27.951Z,100425.20703125
2023-02-22T07:46:27.579Z,100422.19140625
2023-02-22T07:47:27.930Z,100423.53515625
2023-02-22T07:48:27.707Z,100423.01953125
2023-02-22T07:49:27.570Z,100423.61328125
2023-02-22T07:50:27.771Z,100426.9375
2023-02-22T07:51:27.676Z,100426.98828125
2023-02-22T07:52:32.417Z,100425.94921875
2023-02-22T07:53:28.884Z,100425.70703125
2023-02-22T07:54:27.643Z,100427.95703125
2023-02-22T07:55:27.648Z,100431.16015625
2023-02-22T07:56:27.692Z,100429.49609375
2023-02-22T07:57:27.929Z,100429.66796875
2023-02-22T07:58:27.698Z,100429.52734375
2023-02-22T07:59:27.670Z,100429.30078125
2023-02-22T08:00:27.929Z,100431.2890625
2023-02-22T08:01:27.615Z,100428.71875
2023-02-22T08:02:27.755Z,100430.671875
2023-02-22T08:03:30.090Z,100432.1796875
2023-02-22T08:04:27.626Z,100428.0859375
2023-02-22T08:05:27.583Z,100427.74609375
2023-02-22T08:06:27.665Z,100428.38671875
2023-02-22T08:07:27.942Z,100430.43359375
2023-02-22T08:08:27.672Z,100424.42578125
2023-02-22T08:09:27.723Z,100425.9609375
2023-02-22T08:10:27.662Z,100421.3515625
2023-02-22T08:11:27.594Z,100426.86328125
2023-02-22T08:12:27.932Z,100427.4921875
2023-02-22T08:13:27.599Z,100424.81640625
2023-02-22T08:14:30.003Z,100427.00390625
2023-02-22T08:15:27.937Z,100424.40234375
2023-02-22T08:16:27.564Z,100422.515625
2023-02-22T08:17:27.933Z,100421.54296875
2023-02-22T08:18:27.685Z,100421.25390625
2023-02-22T08:19:27.652Z,100422.125
2023-02-22T08:20:27.575Z,100422.60546875
2023-02-22T08:21:27.657Z,100418.078125
2023-02-22T08:22:27.938Z,100418.4375
2023-02-22T08:23:27.717Z,100420.62890625
2023-02-22T08:24:27.551Z,100420.7421875
2023-02-22T08:25:29.975Z,100423.01171875
2023-02-22T08:26:27.689Z,100422.16015625
2023-02-22T08:27:27.714Z,100422.86328125
2023-02-22T08:28:27.704Z,100420.98046875
2023-02-22T08:29:27.577Z,100420.31640625
2023-02-22T08:30:28.028Z,100418.71875
2023-02-22T08:31:27.683Z,100421.22265625
2023-02-22T08:32:28.142Z,100419.05078125
2023-02-22T08:33:27.853Z,100418.48828125
2023-02-22T08:34:27.560Z,100420.54296875
2023-02-22T08:35:27.753Z,100415.953125
2023-02-22T08:36:29.933Z,100421.70703125
2023-02-22T08:37:27.929Z,100420.9921875
2023-02-22T08:38:27.722Z,100422.625
2023-02-22T08:39:27.706Z,100420.6171875
2023-02-22T08:40:27.635Z,100417.23828125
2023-02-22T08:41:27.593Z,100420.4453125
2023-02-22T08:42:27.933Z,100421.31640625
2023-02-22T08:43:27.698Z,100419.60546875
2023-02-22T08:44:27.592Z,100412.4453125
2023-02-22T08:45:27.924Z,100416.58984375
2023-02-22T08:46:27.750Z,100419.26171875
2023-02-22T08:47:32.414Z,100418.0078125
2023-02-22T08:48:27.681Z,100416.27734375
2023-02-22T08:49:27.568Z,100406.1171875
2023-02-22T08:50:27.645Z,100408.81640625
2023-02-22T08:51:27.911Z,100412
2023-02-22T08:52:27.929Z,100414.0703125
2023-02-22T08:53:27.651Z,100410.5078125
2023-02-22T08:54:27.683Z,100409.01953125
2023-02-22T08:55:27.684Z,100407.51953125
2023-02-22T08:56:27.682Z,100410.80078125
2023-02-22T08:57:27.926Z,100406.9375
2023-02-22T08:58:29.960Z,100407.2578125
2023-02-22T08:59:27.675Z,100407.91796875
2023-02-22T09:00:27.921Z,100410.21484375
2023-02-22T09:01:32.967Z,100407.50390625
2023-02-22T09:02:27.925Z,100408.5390625
2023-02-22T09:03:27.600Z,100410.6171875
2023-02-22T09:04:27.597Z,100412.10546875
2023-02-22T09:05:29.256Z,100410.953125
2023-02-22T09:06:27.685Z,100411.50390625
2023-02-22T09:07:27.941Z,100411.91796875
2023-02-22T09:08:27.678Z,100410.90625
2023-02-22T09:09:30.040Z,100411.8359375
2023-02-22T09:10:27.650Z,100413.3984375
2023-02-22T09:11:27.617Z,100410.55859375
2023-02-22T09:12:27.649Z,100412.35546875
2023-02-22T09:13:27.678Z,100410.66015625
2023-02-22T09:14:27.676Z,100407.27734375
2023-02-22T09:15:27.970Z,100406.296875
2023-02-22T09:16:27.704Z,100400.76171875
2023-02-22T09:17:27.936Z,100401.66015625
2023-02-22T09:18:35.955Z,100398.53515625
2023-02-22T09:19:27.680Z,100397.63671875
2023-02-22T09:20:30.086Z,100398.7890625
2023-02-22T09:21:27.618Z,100399.1953125
2023-02-22T09:22:27.975Z,100393.0703125
2023-02-22T09:23:27.605Z,100394.390625
2023-02-22T09:24:27.687Z,100393.38671875
2023-02-22T09:25:27.646Z,100391.91015625
2023-02-22T09:26:27.594Z,100395.234375
2023-02-22T09:27:27.925Z,100394.48046875
2023-02-22T09:28:29.136Z,100392.5546875
2023-02-22T09:29:27.604Z,100391.4609375
2023-02-22T09:30:28.021Z,100387.92578125
2023-02-22T09:31:30.084Z,100390.875
2023-02-22T09:32:28.166Z,100391.57421875
2023-02-22T09:33:27.736Z,100390.015625
2023-02-22T09:34:27.672Z,100386.06640625
2023-02-22T09:35:27.796Z,100388.125
2023-02-22T09:36:27.564Z,100387.69921875
2023-02-22T09:37:27.702Z,100390.26171875
2023-02-22T09:38:27.601Z,100389.02734375
2023-02-22T09:39:27.703Z,100388.8828125
2023-02-22T09:40:27.572Z,100391.80859375
2023-02-22T09:41:27.600Z,100391.6328125
2023-02-22T09:42:32.336Z,100393.515625
2023-02-22T09:43:27.644Z,100389.53515625
2023-02-22T09:44:27.665Z,100396.55859375
2023-02-22T09:45:27.979Z,100396.30859375
2023-02-22T09:46:27.591Z,100396.0625
2023-02-22T09:47:27.942Z,100392.6171875
2023-02-22T09:48:27.650Z,100391.9765625
2023-02-22T09:49:27.671Z,100392.8125
2023-02-22T09:50:27.630Z,100392.3125
2023-02-22T09:51:27.697Z,100388.8984375
2023-02-22T09:52:27.933Z,100388.9765625
2023-02-22T09:53:30.141Z,100380.9453125
2023-02-22T09:54:27.637Z,100381.20703125
2023-02-22T09:55:27.577Z,100378.671875
2023-02-22T09:56:27.587Z,100375.70703125
2023-02-22T09:57:27.914Z,100377.79296875
2023-02-22T09:58:27.691Z,100374.79296875
2023-02-22T09:59:27.652Z,100376.28125